Time;durP1;ratioP1;P1;durP2;ratioP2;P2;SDS_P1;SDS_P2;PMS_P1;PMS_P2;Temp;Humidity;BMP_temperature;BMP_pressure;BME280_temperature;BME280_humidity;BME280_pressure;Samples;Min_cycle;Max_cycle;Signal;HPM_P1;HPM_P2
2022/12/11 00:01:43;;;;;;;53.13;10.98;;;;;;;18.82;69.29;99313.84;5050619;28;20032;-74
2022/12/11 00:04:08;;;;;;;37.85;10.60;;;;;;;18.94;69.02;99312.16;5050858;28;20021;-74
2022/12/11 00:06:34;;;;;;;35.95;10.77;;;;;;;19.00;68.94;99305.88;5050580;28;20399;-74
2022/12/11 00:08:59;;;;;;;34.17;11.07;;;;;;;18.80;68.95;99271.53;5050803;28;20048;-74
2022/12/11 00:11:25;;;;;;;47.42;9.98;;;;;;;18.35;68.74;99208.66;5049091;28;20473;-75
2022/12/11 00:13:50;;;;;;;37.97;11.88;;;;;;;18.88;69.22;99301.28;5050568;28;20033;-74
2022/12/11 00:16:16;;;;;;;49.60;12.80;;;;;;;18.93;69.33;99296.00;5050572;28;20507;-75
2022/12/11 00:18:41;;;;;;;54.92;12.60;;;;;;;18.80;69.11;99301.50;5050549;28;20025;-73
2022/12/11 00:21:09;;;;;;;45.28;10.57;;;;;;;18.42;71.14;99302.06;5050255;28;20114;-73
2022/12/11 00:23:35;;;;;;;42.88;10.70;;;;;;;18.32;71.38;99293.44;5050539;28;20098;-75
2022/12/11 00:26:05;;;;;;;35.95;11.63;;;;;;;18.10;71.72;99262.03;5050208;28;20041;-74
2022/12/11 00:28:31;;;;;;;42.53;11.43;;;;;;;18.23;72.13;99302.84;5050040;28;20029;-75
2022/12/11 00:30:56;;;;;;;45.47;11.43;;;;;;;18.08;73.06;99304.91;5050308;28;20446;-74
2022/12/11 00:33:22;;;;;;;42.58;11.63;;;;;;;17.98;73.79;99293.56;5051520;28;20055;-75
2022/12/11 00:35:47;;;;;;;40.00;11.93;;;;;;;18.02;73.68;99305.72;5054659;28;20029;-75
2022/12/11 00:38:16;;;;;;;43.45;11.35;;;;;;;17.99;73.74;99311.56;5054325;28;20025;-75
2022/12/11 00:40:42;;;;;;;35.08;12.38;;;;;;;17.73;73.94;99292.47;5049947;28;20115;-75
2022/12/11 00:43:07;;;;;;;46.33;12.10;;;;;;;17.70;74.40;99295.56;5050094;28;20040;-74
2022/12/11 00:45:46;;;;;;;41.40;11.93;;;;;;;17.61;74.85;99266.88;5049998;28;20029;-74
2022/12/11 00:48:12;;;;;;;43.58;12.85;;;;;;;17.52;75.17;99270.78;5050052;28;20120;-75
2022/12/11 00:50:38;;;;;;;41.30;14.13;;;;;;;17.47;75.38;99248.78;5048498;28;20120;-75
2022/12/11 00:53:05;;;;;;;46.60;13.60;;;;;;;17.35;75.88;99246.66;5050079;28;20024;-74
2022/12/11 00:55:35;;;;;;;45.03;13.30;;;;;;;17.19;76.73;99254.28;5049650;28;20123;-75
2022/12/11 00:58:00;;;;;;;46.78;14.98;;;;;;;17.02;77.37;99225.78;5049682;28;20025;-73
2022/12/11 01:00:26;;;;;;;45.25;16.50;;;;;;;17.04;77.78;99248.16;5049491;28;20454;-74
2022/12/11 01:02:51;;;;;;;53.10;17.73;;;;;;;16.68;79.37;99257.31;5049832;28;20120;-75
2022/12/11 01:05:17;;;;;;;50.92;15.80;;;;;;;16.64;79.89;99233.47;5049664;28;20458;-75
2022/12/11 01:07:42;;;;;;;44.20;14.18;;;;;;;16.62;80.26;99238.25;5049662;28;20032;-75
2022/12/11 01:10:22;;;;;;;46.63;14.25;;;;;;;16.64;80.34;99245.16;5049449;28;20032;-74
2022/12/11 01:12:49;;;;;;;53.90;16.60;;;;;;;16.49;80.99;99238.13;5049711;28;20104;-74
2022/12/11 01:15:15;;;;;;;64.05;17.13;;;;;;;16.37;82.10;99236.97;5049216;28;20535;-74
2022/12/11 01:17:40;;;;;;;35.70;15.30;;;;;;;16.28;82.44;99234.41;5049348;28;20111;-74
2022/12/11 01:20:06;;;;;;;42.83;17.35;;;;;;;16.30;83.03;99226.06;5049454;28;20032;-75
2022/12/11 01:22:32;;;;;;;54.30;16.88;;;;;;;16.25;83.33;99232.09;5049289;28;20029;-75
2022/12/11 01:24:58;;;;;;;40.25;16.70;;;;;;;16.15;84.30;99223.44;5049093;28;20024;-74
2022/12/11 01:27:24;;;;;;;52.92;18.25;;;;;;;16.17;84.39;99229.50;5049302;28;20025;-73
2022/12/11 01:29:50;;;;;;;46.00;15.82;;;;;;;16.11;84.34;99227.59;5049364;28;20021;-75
2022/12/11 01:32:15;;;;;;;59.05;18.23;;;;;;;16.12;84.59;99239.25;5048987;28;20035;-74
2022/12/11 01:34:41;;;;;;;41.50;15.75;;;;;;;16.08;85.08;99224.41;5049286;28;20017;-74
2022/12/11 01:37:06;;;;;;;57.17;16.08;;;;;;;16.04;84.71;99237.50;5049359;28;20424;-74
2022/12/11 01:39:31;;;;;;;31.52;14.77;;;;;;;16.21;84.59;99233.50;5052888;28;20393;-74
2022/12/11 01:41:59;;;;;;;37.83;15.57;;;;;;;16.29;84.00;99219.81;5052370;28;20025;-74
2022/12/11 01:44:24;;;;;;;45.33;16.70;;;;;;;16.40;83.80;99233.88;5048209;28;20128;-74
2022/12/11 01:46:50;;;;;;;43.78;17.00;;;;;;;16.48;83.54;99231.03;5049019;28;20108;-74
2022/12/11 01:49:17;;;;;;;50.55;15.07;;;;;;;16.49;83.26;99205.53;5048115;28;20020;-73
2022/12/11 01:51:54;;;;;;;55.42;17.38;;;;;;;16.41;82.69;99194.84;5049014;28;20136;-74
2022/12/11 01:54:23;;;;;;;52.42;15.95;;;;;;;16.46;82.22;99192.38;5048727;28;20025;-74
2022/12/11 01:56:51;;;;;;;41.97;16.73;;;;;;;16.24;81.92;99170.72;5048870;28;20024;-74
2022/12/11 01:59:21;;;;;;;53.63;15.43;;;;;;;16.47;81.88;99191.34;5048943;28;20100;-75
2022/12/11 02:01:54;;;;;;;47.75;16.52;;;;;;;16.44;82.41;99195.31;5048502;28;20025;-74
2022/12/11 02:04:19;;;;;;;38.30;16.08;;;;;;;16.34;82.78;99192.91;5048438;28;20025;-75
2022/12/11 02:06:48;;;;;;;39.03;15.38;;;;;;;16.41;82.61;99187.56;5048836;28;20128;-74
2022/12/11 02:09:23;;;;;;;51.95;17.23;;;;;;;16.22;82.53;99182.81;5048787;28;20057;-75
2022/12/11 02:12:01;;;;;;;53.35;18.52;;;;;;;16.22;82.86;99186.34;5048615;28;20119;-75
2022/12/11 02:14:33;;;;;;;39.22;17.15;;;;;;;16.16;83.08;99180.88;5048629;28;20029;-75
2022/12/11 02:17:23;;;;;;;63.88;19.45;;;;;;;15.96;83.91;99172.53;5048692;28;20082;-74
2022/12/11 02:20:07;;;;;;;51.70;18.13;;;;;;;15.98;84.25;99173.22;5048461;28;20021;-76
2022/12/11 02:22:46;;;;;;;40.00;19.25;;;;;;;15.93;84.20;99159.38;5048512;28;20033;-74
2022/12/11 02:25:34;;;;;;;65.50;19.73;;;;;;;15.90;84.50;99146.22;5047317;28;20104;-75
2022/12/11 02:28:32;;;;;;;52.63;19.02;;;;;;;15.88;84.88;99128.47;5048687;28;20155;-73
2022/12/11 02:31:05;;;;;;;58.65;19.85;;;;;;;15.72;84.49;99091.63;5049069;28;20361;-74
2022/12/11 02:33:58;;;;;;;54.25;18.48;;;;;;;15.84;84.74;99121.78;5048442;28;20036;-74
2022/12/11 02:36:28;;;;;;;56.55;18.75;;;;;;;15.57;85.03;99089.00;5047381;28;20079;-75
2022/12/11 02:38:57;;;;;;;43.40;19.85;;;;;;;15.76;85.67;99126.28;5049106;28;20029;-75
2022/12/11 02:41:25;;;;;;;66.70;20.45;;;;;;;15.79;85.62;99115.06;5048782;28;20025;-74
2022/12/11 02:43:55;;;;;;;48.42;19.77;;;;;;;15.69;85.58;99087.44;5052039;28;20028;-74
2022/12/11 02:46:23;;;;;;;60.55;18.90;;;;;;;15.83;85.57;99115.50;5052258;28;20024;-75
2022/12/11 02:48:50;;;;;;;67.05;19.60;;;;;;;15.93;85.15;99115.19;5048649;28;20033;-74
2022/12/11 02:51:20;;;;;;;50.53;19.80;;;;;;;15.98;85.18;99118.13;5048572;28;20045;-73
2022/12/11 02:53:48;;;;;;;64.82;19.98;;;;;;;15.97;85.08;99117.28;5048366;28;20029;-74
2022/12/11 02:56:24;;;;;;;60.58;18.88;;;;;;;16.02;85.06;99105.88;5048255;28;20050;-74
2022/12/11 02:59:04;;;;;;;42.53;19.08;;;;;;;16.03;84.50;99102.94;5048636;28;20112;-75
2022/12/11 03:01:30;;;;;;;53.35;18.85;;;;;;;16.06;84.41;99089.00;5052030;28;20025;-74
2022/12/11 03:03:57;;;;;;;54.03;16.33;;;;;;;15.88;83.38;99063.41;5052128;28;20027;-74
2022/12/11 03:06:30;;;;;;;71.38;19.48;;;;;;;15.97;83.12;99079.31;5052017;28;20063;-75
2022/12/11 03:08:56;;;;;;;55.72;16.77;;;;;;;15.97;83.40;99079.31;5051846;28;20076;-74
2022/12/11 03:11:21;;;;;;;52.67;16.48;;;;;;;15.93;83.63;99091.59;5051798;28;20432;-75
2022/12/11 03:13:47;;;;;;;55.90;17.80;;;;;;;15.84;84.11;99072.97;5051947;28;20029;-75
2022/12/11 03:16:21;;;;;;;52.92;17.27;;;;;;;15.84;84.11;99070.28;5051955;28;20162;-74
2022/12/11 03:19:05;;;;;;;52.67;16.02;;;;;;;15.87;84.17;99067.16;5066202;28;20500;-74
2022/12/11 03:21:37;;;;;;;56.55;16.77;;;;;;;15.74;84.56;99067.88;5051817;28;20504;-74
2022/12/11 03:24:03;;;;;;;44.95;16.15;;;;;;;15.79;84.70;99066.25;5052003;28;20044;-75
2022/12/11 03:26:31;;;;;;;40.47;17.17;;;;;;;15.71;84.66;99052.88;5051811;28;20071;-73
2022/12/11 03:29:09;;;;;;;65.70;17.88;;;;;;;15.65;84.80;99029.25;5051804;28;20029;-75
2022/12/11 03:31:44;;;;;;;54.65;17.77;;;;;;;15.82;84.38;99043.34;5051752;28;20029;-73
2022/12/11 03:34:15;;;;;;;73.85;19.85;;;;;;;15.84;84.39;99049.41;5051673;28;20025;-74
2022/12/11 03:36:42;;;;;;;51.60;16.40;;;;;;;15.76;84.42;99055.81;5051979;28;20041;-75
2022/12/11 03:39:32;;;;;;;44.45;18.65;;;;;;;15.77;84.34;99056.66;5055074;28;20032;-75
2022/12/11 03:42:01;;;;;;;64.43;17.83;;;;;;;15.52;84.86;99026.44;5061105;28;20385;-73
2022/12/11 03:44:28;;;;;;;60.70;16.42;;;;;;;15.69;84.89;99048.66;5061879;28;20033;-73
2022/12/11 03:46:57;;;;;;;63.78;18.20;;;;;;;15.62;84.99;99047.78;5058908;28;20084;-74
2022/12/11 03:49:28;;;;;;;53.38;15.90;;;;;;;15.68;85.54;99055.97;5055822;28;20025;-74
2022/12/11 03:51:56;;;;;;;50.35;16.20;;;;;;;15.53;85.26;99024.56;5052462;28;20448;-74
2022/12/11 03:54:23;;;;;;;62.03;17.25;;;;;;;15.78;84.48;99048.31;5051212;28;20170;-74
2022/12/11 03:56:52;;;;;;;48.05;15.68;;;;;;;15.76;84.61;99042.25;5050921;28;20028;-74
2022/12/11 03:59:17;;;;;;;47.67;17.35;;;;;;;15.78;84.59;99036.63;5051322;28;20500;-75
2022/12/11 04:01:43;;;;;;;46.88;15.73;;;;;;;15.81;84.33;99019.16;5051005;28;20032;-74
2022/12/11 04:04:08;;;;;;;55.63;17.65;;;;;;;15.82;84.03;99024.38;5050869;28;20033;-74
2022/12/11 04:06:34;;;;;;;40.70;15.85;;;;;;;15.61;84.17;98976.47;5050886;28;20021;-73
2022/12/11 04:08:59;;;;;;;63.70;18.38;;;;;;;15.82;84.04;99001.84;5050571;28;20047;-75
2022/12/11 04:11:34;;;;;;;52.33;17.30;;;;;;;15.76;84.33;98992.63;5049767;28;20496;-74
2022/12/11 04:16:57;;;;;;;55.95;17.75;;;;;;;15.53;85.27;98948.69;5050510;28;20051;-74
2022/12/11 04:24:54;;;;;;;47.28;15.68;;;;;;;15.30;86.85;98939.91;5050692;28;20035;-74
2022/12/11 04:30:06;;;;;;;55.33;17.33;;;;;;;15.41;86.46;98947.53;5050592;28;20075;-75
2022/12/11 04:32:31;;;;;;;44.53;16.17;;;;;;;15.47;86.27;98963.00;5049983;28;20032;-74
2022/12/11 04:34:57;;;;;;;57.92;15.40;;;;;;;15.60;85.82;98957.69;5050478;28;20431;-74
2022/12/11 04:37:22;;;;;;;44.53;15.93;;;;;;;15.73;85.53;98936.09;5050152;28;20412;-74
2022/12/11 04:39:47;;;;;;;64.10;16.80;;;;;;;15.78;84.46;98945.31;5050363;28;20021;-75
2022/12/11 04:42:13;;;;;;;55.85;14.88;;;;;;;15.51;84.63;98872.16;5050094;28;20036;-75
2022/12/11 04:44:38;;;;;;;52.67;16.38;;;;;;;15.78;83.56;98915.50;5050146;28;20021;-74
2022/12/11 04:47:04;;;;;;;67.57;17.55;;;;;;;15.74;83.48;98903.41;5049866;28;20035;-73
2022/12/11 04:49:29;;;;;;;52.50;15.20;;;;;;;15.86;83.13;98895.53;5050640;28;20025;-74
2022/12/11 04:51:55;;;;;;;53.72;15.35;;;;;;;16.15;82.73;98927.78;5051691;28;20048;-74
2022/12/11 04:54:20;;;;;;;53.00;16.65;;;;;;;16.26;82.60;98921.81;5052106;28;20064;-74
2022/12/11 04:56:45;;;;;;;50.72;17.40;;;;;;;16.39;82.04;98910.13;5050108;28;20036;-74
2022/12/11 04:59:11;;;;;;;49.95;17.08;;;;;;;16.48;81.16;98924.38;5049775;28;20037;-74
2022/12/11 05:01:36;;;;;;;46.47;16.98;;;;;;;16.51;80.76;98923.97;5049738;28;20029;-73
2022/12/11 05:04:02;;;;;;;48.28;16.35;;;;;;;16.53;80.27;98911.88;5049864;28;20025;-74
2022/12/11 05:06:27;;;;;;;52.35;16.10;;;;;;;16.62;80.38;98907.94;5049691;28;20451;-75
2022/12/11 05:08:52;;;;;;;49.88;15.82;;;;;;;16.75;79.96;98915.28;5049797;28;20487;-74
2022/12/11 05:11:18;;;;;;;56.72;15.60;;;;;;;16.87;79.47;98862.06;5049625;28;20021;-73
2022/12/11 05:13:44;;;;;;;46.30;15.82;;;;;;;16.98;78.29;98828.81;5049360;28;20025;-75
2022/12/11 05:16:13;;;;;;;46.75;15.40;;;;;;;17.30;77.47;98860.59;5049261;28;20037;-73
2022/12/11 05:18:39;;;;;;;47.38;15.13;;;;;;;17.52;76.66;98874.75;5048216;28;20502;-73
2022/12/11 05:21:07;;;;;;;52.67;14.57;;;;;;;17.60;75.99;98846.53;5049087;28;20021;-74
2022/12/11 05:23:33;;;;;;;62.25;16.10;;;;;;;17.82;75.17;98877.84;5048583;28;20522;-74
2022/12/11 05:26:07;;;;;;;42.38;13.48;;;;;;;17.86;74.34;98854.59;5049197;28;20032;-75
2022/12/11 05:28:35;;;;;;;44.20;15.18;;;;;;;18.08;73.95;98909.56;5049093;28;20028;-75
2022/12/11 05:31:04;;;;;;;58.58;15.88;;;;;;;18.15;73.33;98918.53;5049071;28;20044;-75
2022/12/11 05:33:30;;;;;;;54.95;15.63;;;;;;;18.21;73.22;98904.91;5049620;28;20024;-73
2022/12/11 05:35:55;;;;;;;47.30;14.48;;;;;;;18.26;72.82;98924.16;5049231;28;20029;-74
2022/12/11 05:38:22;;;;;;;53.28;14.38;;;;;;;18.34;72.06;98918.47;5049073;28;20105;-74
2022/12/11 05:41:03;;;;;;;41.33;15.55;;;;;;;18.46;71.19;98954.84;5048977;28;20032;-75
2022/12/11 05:43:29;;;;;;;56.45;14.45;;;;;;;18.54;70.89;98944.78;5048860;28;20538;-74
2022/12/11 05:46:04;;;;;;;40.63;13.93;;;;;;;18.47;70.32;98902.06;5048929;28;20560;-74
2022/12/11 05:48:30;;;;;;;38.88;13.65;;;;;;;18.65;70.21;98936.78;5048967;28;20021;-74
2022/12/11 05:50:57;;;;;;;36.10;13.18;;;;;;;18.70;69.86;98912.44;5048875;28;20063;-74
2022/12/11 05:53:23;;;;;;;49.90;14.15;;;;;;;18.71;69.92;98907.84;5048926;28;20081;-74
2022/12/11 05:55:48;;;;;;;37.83;14.20;;;;;;;18.76;69.57;98916.19;5053533;28;20124;-73
2022/12/11 05:58:13;;;;;;;48.20;12.48;;;;;;;18.68;69.61;98921.91;5053663;28;20100;-74
2022/12/11 06:00:42;;;;;;;42.80;12.90;;;;;;;18.85;69.34;98947.56;5050207;28;20112;-74
2022/12/11 06:03:08;;;;;;;44.42;13.65;;;;;;;18.91;68.77;98957.56;5048634;28;20504;-75
2022/12/11 06:05:38;;;;;;;47.83;12.73;;;;;;;18.92;68.71;98956.53;5048693;28;20025;-74
2022/12/11 06:08:04;;;;;;;43.97;14.70;;;;;;;18.82;68.89;98948.84;5048832;28;20032;-74
2022/12/11 06:10:29;;;;;;;39.60;12.55;;;;;;;18.93;68.46;98956.28;5048592;28;20029;-74
2022/12/11 06:12:54;;;;;;;42.90;13.65;;;;;;;18.97;68.54;98962.16;5048930;28;20037;-73
2022/12/11 06:15:21;;;;;;;44.80;13.30;;;;;;;19.03;68.24;98955.81;5048626;28;20021;-73
2022/12/11 06:17:46;;;;;;;48.35;13.27;;;;;;;19.06;68.27;98952.66;5048721;28;20017;-73
2022/12/11 06:20:11;;;;;;;46.63;12.63;;;;;;;19.09;67.99;98952.22;5048520;28;20182;-74
2022/12/11 06:22:37;;;;;;;36.95;12.05;;;;;;;19.08;67.90;98942.34;5048404;28;20116;-73
2022/12/11 06:25:03;;;;;;;39.67;11.65;;;;;;;19.07;68.04;98951.63;5048567;28;20120;-76
2022/12/11 06:27:28;;;;;;;36.90;13.30;;;;;;;18.80;68.45;98895.63;5048773;28;20021;-75
2022/12/11 06:29:54;;;;;;;46.30;13.30;;;;;;;18.76;68.75;98903.41;5048930;28;20029;-74
2022/12/11 06:32:20;;;;;;;56.45;14.25;;;;;;;18.89;69.20;98927.84;5048194;28;20064;-75
2022/12/11 06:34:46;;;;;;;50.35;12.65;;;;;;;18.90;69.11;98934.94;5050111;28;20477;-74
2022/12/11 06:37:12;;;;;;;56.08;12.60;;;;;;;18.89;69.29;98937.91;5052285;28;20052;-75
2022/12/11 06:39:37;;;;;;;40.67;10.43;;;;;;;18.94;69.29;98943.53;5052287;28;20032;-75
2022/12/11 06:42:03;;;;;;;39.25;12.68;;;;;;;18.94;69.50;98944.34;5052526;28;20029;-74
2022/12/11 06:44:28;;;;;;;51.28;13.10;;;;;;;19.00;69.28;98939.91;5052193;28;20705;-75
2022/12/11 06:46:54;;;;;;;63.60;11.88;;;;;;;19.05;69.38;98948.25;5052014;28;20021;-74
2022/12/11 06:49:19;;;;;;;46.55;13.07;;;;;;;18.93;69.08;98915.44;5052376;28;20083;-75
2022/12/11 06:51:45;;;;;;;41.35;12.18;;;;;;;18.96;69.00;98934.06;5052536;28;20112;-75
2022/12/11 06:54:10;;;;;;;49.42;12.15;;;;;;;19.10;69.12;98956.63;5051988;28;20055;-76
2022/12/11 06:56:36;;;;;;;50.15;12.32;;;;;;;19.16;69.08;98944.84;5052442;28;20487;-75
2022/12/11 06:59:01;;;;;;;54.70;10.93;;;;;;;19.24;68.76;98962.78;5053880;28;20021;-75
2022/12/11 07:01:27;;;;;;;56.65;12.38;;;;;;;19.25;68.75;98968.03;5054766;28;20103;-75
2022/12/11 07:03:54;;;;;;;46.47;12.48;;;;;;;19.31;68.59;98958.13;5054236;28;20036;-74
2022/12/11 07:06:20;;;;;;;36.45;10.30;;;;;;;19.31;68.79;98964.44;5051726;28;20075;-74
2022/12/11 07:08:45;;;;;;;41.65;10.48;;;;;;;19.34;68.41;98955.81;5051829;28;20036;-74
2022/12/11 07:11:13;;;;;;;44.55;11.35;;;;;;;19.38;68.29;98965.22;5052051;28;20028;-74
2022/12/11 07:13:39;;;;;;;43.03;11.00;;;;;;;19.19;68.26;98929.94;5051919;28;20040;-74
2022/12/11 07:16:09;;;;;;;48.90;12.23;;;;;;;19.12;68.37;98916.34;5051411;28;20021;-75
2022/12/11 07:18:36;;;;;;;45.28;10.85;;;;;;;19.44;68.11;98955.34;5051693;28;20106;-75
2022/12/11 07:21:02;;;;;;;38.03;10.70;;;;;;;19.50;68.54;98974.38;5051339;28;20100;-74
2022/12/11 07:23:27;;;;;;;53.30;12.93;;;;;;;19.43;68.92;98973.59;5051568;28;20183;-73
2022/12/11 07:25:53;;;;;;;35.90;11.85;;;;;;;19.47;69.25;98980.28;5050315;28;20025;-74
2022/12/11 07:28:19;;;;;;;42.60;11.40;;;;;;;19.43;69.52;98973.59;5051513;28;20033;-75
2022/12/11 07:30:44;;;;;;;44.83;11.50;;;;;;;19.36;69.67;98967.31;5051371;28;20103;-75
2022/12/11 07:33:10;;;;;;;43.05;11.07;;;;;;;19.43;69.98;98968.16;5048630;28;20077;-75
2022/12/11 07:35:35;;;;;;;34.33;9.90;;;;;;;19.47;70.10;98966.66;5048409;28;20147;-75
2022/12/11 07:38:00;;;;;;;48.65;11.32;;;;;;;19.42;70.35;98966.47;5048645;28;20091;-75
2022/12/11 07:40:26;;;;;;;35.60;11.38;;;;;;;19.32;70.70;98955.22;5048522;28;20032;-75
2022/12/11 07:42:52;;;;;;;43.30;11.07;;;;;;;19.25;70.92;98943.50;5015014;28;20059;-76
2022/12/11 07:45:17;;;;;;;29.27;9.82;;;;;;;19.39;71.46;98980.53;5048176;28;20485;-74
2022/12/11 07:47:43;;;;;;;41.85;12.23;;;;;;;19.35;71.50;98971.13;5047462;28;20045;-77
2022/12/11 07:50:08;;;;;;;31.27;9.82;;;;;;;19.34;71.45;98957.69;5048364;28;20065;-74
2022/12/11 07:52:34;;;;;;;25.23;9.45;;;;;;;19.24;71.12;98952.72;5048164;28;20059;-75
2022/12/11 07:55:00;;;;;;;44.22;10.95;;;;;;;19.43;71.33;98973.59;5048593;28;20055;-75
2022/12/11 07:57:26;;;;;;;40.33;10.18;;;;;;;19.40;71.54;98973.19;5031761;28;20041;-75
2022/12/11 07:59:52;;;;;;;42.05;8.85;;;;;;;19.41;71.67;98970.28;5048421;28;20048;-75
2022/12/11 08:02:17;;;;;;;29.65;8.95;;;;;;;19.45;71.66;98968.75;5048969;28;20028;-75
2022/12/11 08:04:43;;;;;;;34.53;9.50;;;;;;;19.34;71.80;98961.25;5053035;28;20029;-74
2022/12/11 08:07:08;;;;;;;36.83;8.98;;;;;;;19.43;71.85;98957.25;5051410;28;20047;-75
2022/12/11 08:09:33;;;;;;;31.80;11.02;;;;;;;19.43;71.94;98967.31;5051087;28;20075;-75
2022/12/11 08:11:59;;;;;;;43.42;8.80;;;;;;;19.43;71.83;98965.41;5050753;28;20636;-75
2022/12/11 08:14:24;;;;;;;27.50;8.02;;;;;;;19.37;72.04;98974.44;5050424;28;20021;-75
2022/12/11 08:16:50;;;;;;;33.88;9.18;;;;;;;19.30;72.20;98965.47;5050703;28;20072;-75
2022/12/11 08:19:15;;;;;;;30.23;9.00;;;;;;;19.36;72.17;98982.84;5050407;28;20107;-74
2022/12/11 08:21:41;;;;;;;27.75;8.57;;;;;;;19.40;72.06;98968.59;5050067;28;20036;-74
2022/12/11 08:24:08;;;;;;;35.17;7.28;;;;;;;19.43;71.88;98965.41;5048985;28;20121;-74
2022/12/11 08:26:33;;;;;;;29.38;7.72;;;;;;;19.43;72.25;98961.84;5050281;28;20037;-73
2022/12/11 08:29:00;;;;;;;30.88;7.70;;;;;;;19.42;72.23;98952.00;5050540;28;20051;-75
2022/12/11 08:31:26;;;;;;;27.27;8.30;;;;;;;19.12;72.19;98904.59;5050015;28;20411;-74
2022/12/11 08:33:54;;;;;;;27.30;8.63;;;;;;;19.35;72.40;98922.06;5050071;28;20029;-74
2022/12/11 08:36:21;;;;;;;32.08;7.60;;;;;;;19.21;72.73;98903.28;5049848;28;20032;-75
2022/12/11 08:38:48;;;;;;;23.33;7.82;;;;;;;19.19;73.24;98875.41;5050097;28;20112;-75
2022/12/11 08:41:20;;;;;;;47.90;7.63;;;;;;;19.16;73.30;98879.44;5049885;28;20607;-76
2022/12/11 08:43:46;;;;;;;;;;;;;;;19.08;73.50;98865.25;5050374;28;20025;-74
2022/12/11 08:46:12;;;;;;;29.50;7.35;;;;;;;19.04;73.78;98864.84;5049394;28;19959;-76
2022/12/11 08:48:39;;;;;;;34.60;6.82;;;;;;;19.09;73.79;98861.44;5049908;28;20028;-74
2022/12/11 08:51:08;;;;;;;25.15;6.75;;;;;;;19.12;73.77;98880.94;5050184;28;20564;-76
2022/12/11 08:53:33;;;;;;;31.60;7.38;;;;;;;18.98;73.51;98849.41;5049827;28;20040;-74
2022/12/11 08:56:03;;;;;;;27.17;6.43;;;;;;;19.24;73.20;98892.78;5049916;28;20459;-75
2022/12/11 08:58:28;;;;;;;27.90;7.88;;;;;;;19.23;73.18;98882.94;5049434;28;20059;-76
2022/12/11 09:00:54;;;;;;;25.20;6.15;;;;;;;19.47;72.32;98898.50;5049749;28;20856;-75
2022/12/11 09:03:20;;;;;;;25.85;6.32;;;;;;;19.66;72.02;98912.16;5049393;28;20396;-75
2022/12/11 09:05:45;;;;;;;20.50;5.63;;;;;;;19.85;71.28;98922.84;5049764;28;20117;-75
2022/12/11 09:08:11;;;;;;;31.17;7.05;;;;;;;19.89;70.24;98917.78;5051733;28;20400;-75
2022/12/11 09:10:36;;;;;;;22.15;6.75;;;;;;;20.03;69.98;98922.84;5051487;28;20496;-74
2022/12/11 09:13:01;;;;;;;21.58;6.60;;;;;;;20.08;69.74;98906.66;5049994;28;20029;-74
2022/12/11 09:15:27;;;;;;;18.80;5.47;;;;;;;20.20;69.16;98892.25;5049457;28;20401;-74
2022/12/11 09:17:52;;;;;;;21.98;6.72;;;;;;;20.28;68.98;98894.69;5050758;28;20459;-75
2022/12/11 09:20:18;;;;;;;28.60;6.88;;;;;;;20.29;68.56;98891.72;5055780;28;20143;-76
2022/12/11 09:22:43;;;;;;;21.90;5.25;;;;;;;20.34;68.33;98889.13;5058505;28;20031;-75
2022/12/11 09:25:09;;;;;;;22.33;6.57;;;;;;;20.47;68.11;98910.81;5059200;28;20041;-75
2022/12/11 09:27:34;;;;;;;20.42;5.90;;;;;;;20.35;68.31;98901.72;5059794;28;20021;-76
2022/12/11 09:30:00;;;;;;;20.10;5.90;;;;;;;20.41;68.02;98916.38;5059437;28;20029;-76
2022/12/11 09:32:25;;;;;;;21.27;5.07;;;;;;;20.43;67.79;98898.69;5055367;28;20166;-75
2022/12/11 09:34:51;;;;;;;24.52;5.07;;;;;;;20.46;67.84;98887.28;5049944;28;20029;-75
2022/12/11 09:37:16;;;;;;;19.27;4.57;;;;;;;20.19;68.01;98850.44;5049223;28;20067;-75
2022/12/11 09:39:42;;;;;;;25.25;5.20;;;;;;;20.28;68.45;98873.66;5049169;28;20415;-76
2022/12/11 09:42:20;;;;;;;25.50;5.57;;;;;;;20.24;69.05;98866.16;5049184;28;20029;-74
2022/12/11 09:44:51;;;;;;;30.17;6.65;;;;;;;20.17;69.22;98858.03;5049696;28;20031;-74
2022/12/11 09:47:39;;;;;;;27.05;6.30;;;;;;;20.24;69.36;98850.63;5052770;28;20025;-75
2022/12/11 09:50:07;;;;;;;21.58;5.75;;;;;;;20.33;69.30;98846.53;5051192;28;20493;-74
2022/12/11 09:53:04;;;;;;;38.88;6.90;;;;;;;20.33;68.85;98848.44;5049123;28;20045;-73
2022/12/11 09:55:41;;;;;;;17.27;4.75;;;;;;;20.31;68.72;98840.44;5048902;28;20029;-74
2022/12/11 09:58:23;;;;;;;22.52;5.97;;;;;;;20.51;68.73;98853.84;5049101;28;20099;-74
2022/12/11 10:00:59;;;;;;;26.55;5.50;;;;;;;20.53;68.38;98838.88;5048820;28;20021;-75
2022/12/11 10:03:37;;;;;;;29.33;6.63;;;;;;;20.45;67.97;98809.19;5047490;28;20032;-74
2022/12/11 10:06:35;;;;;;;23.75;5.45;;;;;;;20.68;67.46;98834.88;5047657;28;20021;-74
2022/12/11 10:09:10;;;;;;;23.70;5.47;;;;;;;20.73;67.24;98848.69;5064990;28;20696;-75
2022/12/11 10:11:46;;;;;;;24.50;6.35;;;;;;;20.78;66.96;98846.91;5057028;28;20060;-75
2022/12/11 10:14:27;;;;;;;24.75;6.00;;;;;;;20.91;67.18;98834.94;5057926;28;20029;-74
2022/12/11 10:16:58;;;;;;;21.27;5.53;;;;;;;21.32;65.98;98862.25;5057276;28;20381;-75
2022/12/11 10:19:27;;;;;;;33.58;6.75;;;;;;;21.41;64.67;98851.78;5055388;28;20097;-76
2022/12/11 10:21:54;;;;;;;29.98;5.25;;;;;;;21.44;64.32;98865.81;5055612;28;20477;-76
2022/12/11 10:24:54;;;;;;;29.58;6.88;;;;;;;21.51;64.37;98852.88;5055094;28;20051;-75
2022/12/11 10:27:23;;;;;;;26.63;5.93;;;;;;;21.41;64.17;98835.38;5012442;28;20099;-76
2022/12/11 10:30:11;;;;;;;33.63;7.13;;;;;;;21.40;64.20;98823.63;5012599;28;20041;-75
2022/12/11 10:33:15;;;;;;;30.13;5.13;;;;;;;21.64;63.78;98829.91;5012937;28;20113;-75
2022/12/11 10:35:50;;;;;;;29.05;7.38;;;;;;;21.84;63.38;98829.50;4954604;28;20043;-75
2022/12/11 10:38:39;;;;;;;21.38;5.95;;;;;;;21.93;62.76;98830.81;4954400;28;20039;-74
2022/12/11 10:41:10;;;;;;;39.47;7.93;;;;;;;21.84;62.68;98832.22;4954254;28;20073;-76
2022/12/11 10:43:45;;;;;;;25.50;5.60;;;;;;;21.79;62.76;98832.13;4954806;28;20039;-74
2022/12/11 10:46:26;;;;;;;32.58;6.25;;;;;;;21.51;63.47;98819.19;4954144;28;20486;-74
2022/12/11 10:48:58;;;;;;;43.07;7.60;;;;;;;21.34;64.27;98829.22;4954175;28;20050;-75
2022/12/11 10:51:32;;;;;;;46.33;8.93;;;;;;;21.23;63.80;98814.44;4953734;28;20059;-74
2022/12/11 10:54:19;;;;;;;85.70;11.52;;;;;;;21.19;64.12;98837.03;4954158;28;20098;-74
2022/12/11 10:56:47;;;;;;;47.78;9.25;;;;;;;20.98;63.80;98836.50;4954141;28;20118;-75
2022/12/11 10:59:23;;;;;;;60.55;11.35;;;;;;;21.00;63.78;98849.94;4954234;28;20035;-74
2022/12/11 11:01:49;;;;;;;56.45;11.20;;;;;;;20.82;64.13;98866.41;4954022;28;20454;-75
2022/12/11 11:04:20;;;;;;;85.43;14.80;;;;;;;20.69;64.03;98844.75;4995651;28;20092;-74
2022/12/11 11:06:45;;;;;;;60.80;13.00;;;;;;;20.64;64.34;98861.81;5012673;28;20069;-75
2022/12/11 11:09:28;;;;;;;66.25;12.63;;;;;;;20.37;65.04;98817.69;5012301;28;20042;-74
2022/12/11 11:11:54;;;;;;;55.92;13.20;;;;;;;20.58;65.20;98851.81;5023162;28;20059;-74
2022/12/11 11:14:21;;;;;;;56.65;12.13;;;;;;;20.66;64.64;98864.34;5055671;28;20530;-74
2022/12/11 11:16:50;;;;;;;56.60;12.90;;;;;;;20.59;64.84;98868.00;5056699;28;20508;-73
2022/12/11 11:19:29;;;;;;;75.18;14.43;;;;;;;20.56;65.18;98857.53;5057325;28;20031;-74
2022/12/11 11:22:01;;;;;;;48.47;12.57;;;;;;;20.44;65.28;98853.94;5052306;28;20539;-74
2022/12/11 11:24:41;;;;;;;54.30;14.02;;;;;;;20.05;65.76;98873.53;5051652;28;20025;-75
2022/12/11 11:27:27;;;;;;;109.90;18.90;;;;;;;20.09;66.38;98858.34;5051481;28;20133;-74
2022/12/11 11:30:01;;;;;;;88.38;16.83;;;;;;;20.11;66.03;98856.25;5051518;28;20489;-75
2022/12/11 11:32:32;;;;;;;90.78;14.98;;;;;;;19.67;67.34;98853.81;5052135;28;20056;-80
2022/12/11 11:35:12;;;;;;;78.18;17.55;;;;;;;19.42;67.95;98837.47;5052056;28;20112;-78
2022/12/11 11:37:45;;;;;;;62.72;16.92;;;;;;;19.30;68.33;98831.91;5052065;28;20035;-77
2022/12/11 11:40:30;;;;;;;80.00;24.48;;;;;;;19.19;69.94;98868.09;5052155;28;20036;-77